sensor_id;sensor_type;location;lat;lon;timestamp;pressure;altitude;pressure_sealevel;temperature;humidity
9899;BME280;4988;49.238;6.698;2023-07-08T00:01:01;99062.19;;;20.17;76.50
9899;BME280;4988;49.238;6.698;2023-07-08T00:03:26;99061.94;;;20.30;75.27
9899;BME280;4988;49.238;6.698;2023-07-08T00:05:54;99069.91;;;20.21;75.52
9899;BME280;4988;49.238;6.698;2023-07-08T00:08:21;99062.47;;;20.23;75.28
9899;BME280;4988;49.238;6.698;2023-07-08T00:10:46;99059.97;;;20.32;74.95
9899;BME280;4988;49.238;6.698;2023-07-08T00:13:12;99055.69;;;20.29;74.53
9899;BME280;4988;49.238;6.698;2023-07-08T00:15:39;99053.38;;;20.24;75.03
9899;BME280;4988;49.238;6.698;2023-07-08T00:18:14;99046.25;;;20.23;75.14
9899;BME280;4988;49.238;6.698;2023-07-08T00:20:50;99038.44;;;20.20;74.88
9899;BME280;4988;49.238;6.698;2023-07-08T00:23:15;99047.94;;;20.15;75.42
9899;BME280;4988;49.238;6.698;2023-07-08T00:25:41;99049.00;;;20.02;76.01
9899;BME280;4988;49.238;6.698;2023-07-08T00:28:18;99041.28;;;19.98;76.16
9899;BME280;4988;49.238;6.698;2023-07-08T00:30:44;99039.53;;;20.08;75.51
9899;BME280;4988;49.238;6.698;2023-07-08T00:33:10;99041.41;;;20.17;74.75
9899;BME280;4988;49.238;6.698;2023-07-08T00:35:37;99041.09;;;20.11;75.13
9899;BME280;4988;49.238;6.698;2023-07-08T00:38:20;99041.75;;;20.03;74.13
9899;BME280;4988;49.238;6.698;2023-07-08T00:43:28;99039.09;;;19.70;77.58
9899;BME280;4988;49.238;6.698;2023-07-08T00:46:03;99046.41;;;19.58;78.64
9899;BME280;4988;49.238;6.698;2023-07-08T00:48:36;99044.19;;;19.64;78.12
9899;BME280;4988;49.238;6.698;2023-07-08T00:51:02;99039.69;;;19.74;77.59
9899;BME280;4988;49.238;6.698;2023-07-08T00:53:31;99038.81;;;19.85;76.22
9899;BME280;4988;49.238;6.698;2023-07-08T00:56:10;99036.97;;;19.85;76.38
9899;BME280;4988;49.238;6.698;2023-07-08T00:58:43;99032.75;;;19.92;76.12
9899;BME280;4988;49.238;6.698;2023-07-08T01:01:09;99032.66;;;19.83;76.14
9899;BME280;4988;49.238;6.698;2023-07-08T01:03:43;99040.53;;;19.86;75.99
9899;BME280;4988;49.238;6.698;2023-07-08T01:06:11;99034.09;;;19.66;77.18
9899;BME280;4988;49.238;6.698;2023-07-08T01:08:37;99041.53;;;19.52;78.02
9899;BME280;4988;49.238;6.698;2023-07-08T01:11:04;99040.84;;;19.39;78.32
9899;BME280;4988;49.238;6.698;2023-07-08T01:13:34;99036.97;;;19.32;78.77
9899;BME280;4988;49.238;6.698;2023-07-08T01:16:00;99036.72;;;19.35;78.65
9899;BME280;4988;49.238;6.698;2023-07-08T01:18:26;99036.94;;;19.43;77.90
9899;BME280;4988;49.238;6.698;2023-07-08T01:20:52;99033.16;;;19.34;77.99
9899;BME280;4988;49.238;6.698;2023-07-08T01:23:20;99034.59;;;19.38;77.81
9899;BME280;4988;49.238;6.698;2023-07-08T01:25:46;99041.94;;;19.48;77.74
9899;BME280;4988;49.238;6.698;2023-07-08T01:28:13;99035.59;;;19.58;77.00
9899;BME280;4988;49.238;6.698;2023-07-08T01:30:41;99040.63;;;19.63;76.62
9899;BME280;4988;49.238;6.698;2023-07-08T01:33:14;99042.72;;;19.59;76.83
9899;BME280;4988;49.238;6.698;2023-07-08T01:35:40;99038.47;;;19.24;78.52
9899;BME280;4988;49.238;6.698;2023-07-08T01:38:09;99042.03;;;18.92;80.54
9899;BME280;4988;49.238;6.698;2023-07-08T01:40:37;99045.28;;;18.85;81.11
9899;BME280;4988;49.238;6.698;2023-07-08T01:43:04;99035.75;;;18.80;81.35
9899;BME280;4988;49.238;6.698;2023-07-08T01:45:37;99032.22;;;18.91;80.52
9899;BME280;4988;49.238;6.698;2023-07-08T01:48:33;99038.31;;;19.05;79.70
9899;BME280;4988;49.238;6.698;2023-07-08T01:51:06;99045.75;;;19.12;79.45
9899;BME280;4988;49.238;6.698;2023-07-08T01:53:34;99038.69;;;18.89;79.99
9899;BME280;4988;49.238;6.698;2023-07-08T01:56:00;99046.22;;;18.51;82.69
9899;BME280;4988;49.238;6.698;2023-07-08T01:58:26;99046.72;;;18.11;84.94
9899;BME280;4988;49.238;6.698;2023-07-08T02:00:52;99051.84;;;18.14;84.66
9899;BME280;4988;49.238;6.698;2023-07-08T02:03:17;99056.25;;;18.15;84.44
9899;BME280;4988;49.238;6.698;2023-07-08T02:05:43;99059.09;;;18.13;84.15
9899;BME280;4988;49.238;6.698;2023-07-08T02:08:09;99056.88;;;18.19;84.34
9899;BME280;4988;49.238;6.698;2023-07-08T02:10:36;99055.91;;;18.20;84.27
9899;BME280;4988;49.238;6.698;2023-07-08T02:13:01;99063.13;;;18.19;83.66
9899;BME280;4988;49.238;6.698;2023-07-08T02:15:26;99061.66;;;18.15;82.81
9899;BME280;4988;49.238;6.698;2023-07-08T02:17:52;99057.13;;;18.15;83.36
9899;BME280;4988;49.238;6.698;2023-07-08T02:20:18;99071.81;;;18.23;83.72
9899;BME280;4988;49.238;6.698;2023-07-08T02:22:43;99067.03;;;18.26;82.74
9899;BME280;4988;49.238;6.698;2023-07-08T02:25:08;99068.41;;;18.43;81.20
9899;BME280;4988;49.238;6.698;2023-07-08T02:27:37;99061.16;;;18.44;80.62
9899;BME280;4988;49.238;6.698;2023-07-08T02:30:04;99076.38;;;18.33;81.08
9899;BME280;4988;49.238;6.698;2023-07-08T02:32:29;99068.50;;;18.19;82.00
9899;BME280;4988;49.238;6.698;2023-07-08T02:34:55;99067.19;;;18.13;82.46
9899;BME280;4988;49.238;6.698;2023-07-08T02:37:20;99072.44;;;18.15;82.13
9899;BME280;4988;49.238;6.698;2023-07-08T02:39:45;99074.16;;;18.16;82.15
9899;BME280;4988;49.238;6.698;2023-07-08T02:42:11;99073.13;;;18.06;81.96
9899;BME280;4988;49.238;6.698;2023-07-08T02:44:36;99067.22;;;17.89;83.25
9899;BME280;4988;49.238;6.698;2023-07-08T02:47:02;99072.47;;;17.91;82.47
9899;BME280;4988;49.238;6.698;2023-07-08T02:49:27;99071.63;;;17.79;83.31
9899;BME280;4988;49.238;6.698;2023-07-08T02:51:53;99082.06;;;17.59;84.63
9899;BME280;4988;49.238;6.698;2023-07-08T02:54:18;99076.63;;;17.48;85.21
9899;BME280;4988;49.238;6.698;2023-07-08T02:56:43;99076.13;;;17.43;85.26
9899;BME280;4988;49.238;6.698;2023-07-08T02:59:09;99077.16;;;17.29;86.58
9899;BME280;4988;49.238;6.698;2023-07-08T03:01:34;99077.75;;;17.21;85.60
9899;BME280;4988;49.238;6.698;2023-07-08T03:04:08;99083.06;;;17.10;87.00
9899;BME280;4988;49.238;6.698;2023-07-08T03:06:34;99081.38;;;17.09;87.18
9899;BME280;4988;49.238;6.698;2023-07-08T03:09:00;99080.03;;;17.14;87.18
9899;BME280;4988;49.238;6.698;2023-07-08T03:11:25;99085.47;;;17.26;86.25
9899;BME280;4988;49.238;6.698;2023-07-08T03:13:50;99080.53;;;17.44;84.66
9899;BME280;4988;49.238;6.698;2023-07-08T03:16:15;99074.97;;;17.58;83.56
9899;BME280;4988;49.238;6.698;2023-07-08T03:18:41;99074.72;;;17.61;82.56
9899;BME280;4988;49.238;6.698;2023-07-08T03:21:14;99066.78;;;17.71;81.76
9899;BME280;4988;49.238;6.698;2023-07-08T03:23:40;99074.25;;;17.67;82.91
9899;BME280;4988;49.238;6.698;2023-07-08T03:26:06;99074.03;;;17.71;82.23
9899;BME280;4988;49.238;6.698;2023-07-08T03:28:32;99070.13;;;17.75;81.86
9899;BME280;4988;49.238;6.698;2023-07-08T03:30:57;99071.00;;;17.75;81.90
9899;BME280;4988;49.238;6.698;2023-07-08T03:33:22;99074.81;;;17.84;80.96
9899;BME280;4988;49.238;6.698;2023-07-08T03:35:49;99073.56;;;17.77;81.23
9899;BME280;4988;49.238;6.698;2023-07-08T03:38:14;99081.97;;;17.72;81.27
9899;BME280;4988;49.238;6.698;2023-07-08T03:40:40;99082.72;;;17.39;83.24
9899;BME280;4988;49.238;6.698;2023-07-08T03:43:05;99086.34;;;17.26;83.74
9899;BME280;4988;49.238;6.698;2023-07-08T03:45:30;99081.44;;;17.07;85.07
9899;BME280;4988;49.238;6.698;2023-07-08T03:47:55;99079.13;;;17.02;84.93
9899;BME280;4988;49.238;6.698;2023-07-08T03:50:24;99072.34;;;16.97;85.66
9899;BME280;4988;49.238;6.698;2023-07-08T03:52:51;99066.00;;;16.98;85.62
9899;BME280;4988;49.238;6.698;2023-07-08T03:55:18;99060.81;;;17.08;85.14
9899;BME280;4988;49.238;6.698;2023-07-08T03:57:43;99059.38;;;17.15;83.97
9899;BME280;4988;49.238;6.698;2023-07-08T04:00:09;99061.84;;;17.18;83.87
9899;BME280;4988;49.238;6.698;2023-07-08T04:02:38;99056.13;;;17.23;83.05
9899;BME280;4988;49.238;6.698;2023-07-08T04:05:03;99061.84;;;17.18;83.45
9899;BME280;4988;49.238;6.698;2023-07-08T04:07:29;99066.69;;;17.13;84.51
9899;BME280;4988;49.238;6.698;2023-07-08T04:09:54;99068.53;;;17.12;84.76
9899;BME280;4988;49.238;6.698;2023-07-08T04:12:20;99081.25;;;17.10;84.98
9899;BME280;4988;49.238;6.698;2023-07-08T04:14:45;99085.28;;;16.92;86.00
9899;BME280;4988;49.238;6.698;2023-07-08T04:17:11;99084.09;;;16.83;86.97
9899;BME280;4988;49.238;6.698;2023-07-08T04:19:37;99084.66;;;16.75;86.95
9899;BME280;4988;49.238;6.698;2023-07-08T04:22:05;99094.56;;;16.75;87.03
9899;BME280;4988;49.238;6.698;2023-07-08T04:24:31;99090.38;;;16.70;87.77
9899;BME280;4988;49.238;6.698;2023-07-08T04:26:57;99090.03;;;16.75;87.73
9899;BME280;4988;49.238;6.698;2023-07-08T04:29:23;99097.94;;;16.89;86.49
9899;BME280;4988;49.238;6.698;2023-07-08T04:31:48;99099.38;;;16.95;85.73
9899;BME280;4988;49.238;6.698;2023-07-08T04:34:15;99103.78;;;16.96;86.15
9899;BME280;4988;49.238;6.698;2023-07-08T04:36:41;99108.38;;;16.81;86.52
9899;BME280;4988;49.238;6.698;2023-07-08T04:39:07;99109.03;;;16.85;87.05
9899;BME280;4988;49.238;6.698;2023-07-08T04:41:35;99107.53;;;16.94;85.87
9899;BME280;4988;49.238;6.698;2023-07-08T04:44:06;99113.84;;;17.06;85.41
9899;BME280;4988;49.238;6.698;2023-07-08T04:46:37;99098.66;;;17.17;85.08
9899;BME280;4988;49.238;6.698;2023-07-08T04:49:05;99102.03;;;17.32;85.13
9899;BME280;4988;49.238;6.698;2023-07-08T04:51:31;99106.47;;;17.45;84.39
9899;BME280;4988;49.238;6.698;2023-07-08T04:53:57;99111.16;;;17.54;83.68
9899;BME280;4988;49.238;6.698;2023-07-08T04:56:22;99115.56;;;17.55;83.43
9899;BME280;4988;49.238;6.698;2023-07-08T04:58:48;99113.34;;;17.49;84.49
9899;BME280;4988;49.238;6.698;2023-07-08T05:01:14;99113.28;;;17.62;83.86
9899;BME280;4988;49.238;6.698;2023-07-08T05:03:39;99113.81;;;17.78;82.69
9899;BME280;4988;49.238;6.698;2023-07-08T05:06:04;99104.00;;;18.02;82.45
9899;BME280;4988;49.238;6.698;2023-07-08T05:08:30;99120.59;;;18.31;80.93
9899;BME280;4988;49.238;6.698;2023-07-08T05:10:55;99118.28;;;18.49;80.34
9899;BME280;4988;49.238;6.698;2023-07-08T05:13:21;99109.34;;;18.71;79.37
9899;BME280;4988;49.238;6.698;2023-07-08T05:15:48;99115.31;;;18.98;77.98
9899;BME280;4988;49.238;6.698;2023-07-08T05:18:13;99117.25;;;19.18;76.79
9899;BME280;4988;49.238;6.698;2023-07-08T05:20:38;99126.75;;;19.34;75.49
9899;BME280;4988;49.238;6.698;2023-07-08T05:23:04;99132.34;;;19.53;75.15
9899;BME280;4988;49.238;6.698;2023-07-08T05:25:32;99133.41;;;19.73;74.44
9899;BME280;4988;49.238;6.698;2023-07-08T05:27:57;99139.22;;;19.90;73.69
9899;BME280;4988;49.238;6.698;2023-07-08T05:30:22;99149.59;;;20.06;73.17
9899;BME280;4988;49.238;6.698;2023-07-08T05:32:48;99144.75;;;20.31;72.49
9899;BME280;4988;49.238;6.698;2023-07-08T05:35:13;99146.25;;;20.45;71.96
9899;BME280;4988;49.238;6.698;2023-07-08T05:37:39;99160.31;;;20.60;71.23
9899;BME280;4988;49.238;6.698;2023-07-08T05:40:06;99157.31;;;20.63;71.46
9899;BME280;4988;49.238;6.698;2023-07-08T05:42:32;99145.81;;;20.70;69.75
9899;BME280;4988;49.238;6.698;2023-07-08T05:44:57;99151.47;;;20.88;67.79
9899;BME280;4988;49.238;6.698;2023-07-08T05:47:23;99156.56;;;21.13;66.22
9899;BME280;4988;49.238;6.698;2023-07-08T05:49:48;99158.47;;;21.42;64.99
9899;BME280;4988;49.238;6.698;2023-07-08T05:52:14;99171.22;;;21.71;64.23
9899;BME280;4988;49.238;6.698;2023-07-08T05:54:41;99167.97;;;21.96;61.64
9899;BME280;4988;49.238;6.698;2023-07-08T05:57:09;99169.19;;;22.22;59.55
9899;BME280;4988;49.238;6.698;2023-07-08T05:59:36;99161.47;;;22.46;59.26
9899;BME280;4988;49.238;6.698;2023-07-08T06:02:02;99155.00;;;22.67;58.04
9899;BME280;4988;49.238;6.698;2023-07-08T06:04:28;99155.91;;;22.86;57.27
9899;BME280;4988;49.238;6.698;2023-07-08T06:06:53;99153.88;;;22.97;57.08
9899;BME280;4988;49.238;6.698;2023-07-08T06:09:18;99156.06;;;23.12;55.62
9899;BME280;4988;49.238;6.698;2023-07-08T06:11:44;99158.06;;;23.20;55.80
9899;BME280;4988;49.238;6.698;2023-07-08T06:14:09;99156.38;;;23.37;55.52
9899;BME280;4988;49.238;6.698;2023-07-08T06:16:35;99159.44;;;23.52;55.60
9899;BME280;4988;49.238;6.698;2023-07-08T06:19:00;99165.66;;;23.62;54.98
9899;BME280;4988;49.238;6.698;2023-07-08T06:21:26;99163.94;;;23.61;54.54
9899;BME280;4988;49.238;6.698;2023-07-08T06:23:51;99172.31;;;23.50;55.53
9899;BME280;4988;49.238;6.698;2023-07-08T06:26:16;99167.91;;;23.49;55.67
9899;BME280;4988;49.238;6.698;2023-07-08T06:28:42;99178.47;;;23.52;55.44
9899;BME280;4988;49.238;6.698;2023-07-08T06:31:07;99171.88;;;23.54;55.64
9899;BME280;4988;49.238;6.698;2023-07-08T06:33:32;99173.88;;;23.52;55.63
9899;BME280;4988;49.238;6.698;2023-07-08T06:35:57;99183.81;;;23.43;56.08
9899;BME280;4988;49.238;6.698;2023-07-08T06:38:23;99167.34;;;23.27;56.28
9899;BME280;4988;49.238;6.698;2023-07-08T06:40:48;99167.78;;;23.22;57.11
9899;BME280;4988;49.238;6.698;2023-07-08T06:43:13;99172.06;;;23.25;57.26
9899;BME280;4988;49.238;6.698;2023-07-08T06:45:40;99178.59;;;23.32;57.21
9899;BME280;4988;49.238;6.698;2023-07-08T06:48:05;99180.75;;;23.28;57.20
9899;BME280;4988;49.238;6.698;2023-07-08T06:50:31;99176.88;;;23.31;57.32
9899;BME280;4988;49.238;6.698;2023-07-08T06:52:56;99176.16;;;23.29;57.58
9899;BME280;4988;49.238;6.698;2023-07-08T06:55:21;99175.88;;;23.32;58.28
9899;BME280;4988;49.238;6.698;2023-07-08T06:57:47;99177.03;;;23.48;57.85
9899;BME280;4988;49.238;6.698;2023-07-08T07:00:12;99182.34;;;23.67;57.64
9899;BME280;4988;49.238;6.698;2023-07-08T07:02:38;99181.13;;;23.80;56.67
9899;BME280;4988;49.238;6.698;2023-07-08T07:05:04;99178.59;;;23.96;56.21
9899;BME280;4988;49.238;6.698;2023-07-08T07:07:30;99177.09;;;24.20;55.80
9899;BME280;4988;49.238;6.698;2023-07-08T07:09:56;99178.53;;;24.32;55.09
9899;BME280;4988;49.238;6.698;2023-07-08T07:12:24;99185.13;;;24.48;54.71
9899;BME280;4988;49.238;6.698;2023-07-08T07:14:49;99188.69;;;24.66;54.94
9899;BME280;4988;49.238;6.698;2023-07-08T07:17:18;99194.22;;;24.83;54.75
9899;BME280;4988;49.238;6.698;2023-07-08T07:19:43;99194.94;;;24.93;54.78
9899;BME280;4988;49.238;6.698;2023-07-08T07:22:09;99197.28;;;25.14;55.41
9899;BME280;4988;49.238;6.698;2023-07-08T07:24:34;99202.28;;;25.35;54.65
9899;BME280;4988;49.238;6.698;2023-07-08T07:26:59;99200.69;;;25.59;54.55
9899;BME280;4988;49.238;6.698;2023-07-08T07:29:25;99196.09;;;25.68;54.53
9899;BME280;4988;49.238;6.698;2023-07-08T07:31:50;99199.69;;;25.77;54.24
9899;BME280;4988;49.238;6.698;2023-07-08T07:34:16;99200.56;;;25.77;54.54
9899;BME280;4988;49.238;6.698;2023-07-08T07:36:42;99195.97;;;25.86;54.89
9899;BME280;4988;49.238;6.698;2023-07-08T07:39:07;99200.41;;;26.04;54.77
9899;BME280;4988;49.238;6.698;2023-07-08T07:41:33;99198.09;;;26.25;54.45
9899;BME280;4988;49.238;6.698;2023-07-08T07:43:58;99195.50;;;26.40;54.08
9899;BME280;4988;49.238;6.698;2023-07-08T07:46:23;99190.22;;;26.30;54.01
9899;BME280;4988;49.238;6.698;2023-07-08T07:48:49;99192.97;;;26.39;54.10
9899;BME280;4988;49.238;6.698;2023-07-08T07:51:14;99185.75;;;26.46;53.36
9899;BME280;4988;49.238;6.698;2023-07-08T07:53:41;99197.56;;;26.46;52.60
9899;BME280;4988;49.238;6.698;2023-07-08T07:56:07;99199.22;;;26.56;52.87
9899;BME280;4988;49.238;6.698;2023-07-08T07:58:33;99198.19;;;26.73;52.69
9899;BME280;4988;49.238;6.698;2023-07-08T08:00:58;99189.06;;;27.06;51.50
9899;BME280;4988;49.238;6.698;2023-07-08T08:03:24;99191.19;;;26.95;51.27
9899;BME280;4988;49.238;6.698;2023-07-08T08:05:50;99185.03;;;26.85;51.49
9899;BME280;4988;49.238;6.698;2023-07-08T08:08:16;99192.19;;;26.94;52.17
9899;BME280;4988;49.238;6.698;2023-07-08T08:10:44;99180.94;;;26.89;51.64
9899;BME280;4988;49.238;6.698;2023-07-08T08:13:10;99184.38;;;26.83;51.77
9899;BME280;4988;49.238;6.698;2023-07-08T08:15:36;99183.00;;;26.87;51.69
9899;BME280;4988;49.238;6.698;2023-07-08T08:18:02;99189.16;;;26.89;52.09
9899;BME280;4988;49.238;6.698;2023-07-08T08:20:28;99187.38;;;26.96;51.82
9899;BME280;4988;49.238;6.698;2023-07-08T08:22:54;99185.13;;;27.08;51.22
9899;BME280;4988;49.238;6.698;2023-07-08T08:25:21;99190.41;;;27.18;51.72
9899;BME280;4988;49.238;6.698;2023-07-08T08:27:47;99186.38;;;27.45;50.52
9899;BME280;4988;49.238;6.698;2023-07-08T08:30:12;99190.97;;;27.76;50.08
9899;BME280;4988;49.238;6.698;2023-07-08T08:32:38;99192.00;;;27.99;49.49
9899;BME280;4988;49.238;6.698;2023-07-08T08:35:04;99180.50;;;28.12;49.11
9899;BME280;4988;49.238;6.698;2023-07-08T08:37:29;99183.28;;;28.27;48.65
9899;BME280;4988;49.238;6.698;2023-07-08T08:39:55;99190.50;;;28.19;49.16
9899;BME280;4988;49.238;6.698;2023-07-08T08:42:44;99184.16;;;28.42;48.58
9899;BME280;4988;49.238;6.698;2023-07-08T08:45:17;99192.22;;;28.59;48.17
9899;BME280;4988;49.238;6.698;2023-07-08T08:47:45;99181.34;;;28.65;47.96
9899;BME280;4988;49.238;6.698;2023-07-08T08:52:41;99189.16;;;28.77;48.05
9899;BME280;4988;49.238;6.698;2023-07-08T08:55:11;99195.00;;;28.73;46.97
9899;BME280;4988;49.238;6.698;2023-07-08T08:57:42;99186.72;;;28.59;47.28
9899;BME280;4988;49.238;6.698;2023-07-08T09:00:09;99184.19;;;28.57;48.12
9899;BME280;4988;49.238;6.698;2023-07-08T09:03:02;99196.78;;;28.81;47.78
9899;BME280;4988;49.238;6.698;2023-07-08T09:05:29;99185.56;;;29.06;46.71
9899;BME280;4988;49.238;6.698;2023-07-08T09:08:00;99185.66;;;29.13;46.36
9899;BME280;4988;49.238;6.698;2023-07-08T09:10:39;99190.88;;;29.08;46.79
9899;BME280;4988;49.238;6.698;2023-07-08T09:13:14;99185.09;;;29.17;46.79
9899;BME280;4988;49.238;6.698;2023-07-08T09:15:40;99193.88;;;29.13;46.83
9899;BME280;4988;49.238;6.698;2023-07-08T09:18:25;99194.16;;;29.18;46.38
9899;BME280;4988;49.238;6.698;2023-07-08T09:20:55;99187.13;;;29.45;45.93
9899;BME280;4988;49.238;6.698;2023-07-08T09:23:32;99183.00;;;29.71;46.21
9899;BME280;4988;49.238;6.698;2023-07-08T09:26:14;99183.41;;;29.68;45.34
9899;BME280;4988;49.238;6.698;2023-07-08T09:28:43;99184.84;;;29.64;45.71
9899;BME280;4988;49.238;6.698;2023-07-08T09:33:44;99182.28;;;29.99;44.62
9899;BME280;4988;49.238;6.698;2023-07-08T09:36:18;99176.13;;;29.97;44.57
9899;BME280;4988;49.238;6.698;2023-07-08T09:38:47;99177.03;;;30.04;44.88
9899;BME280;4988;49.238;6.698;2023-07-08T09:41:13;99183.38;;;30.26;44.77
9899;BME280;4988;49.238;6.698;2023-07-08T09:43:39;99177.16;;;30.39;44.40
9899;BME280;4988;49.238;6.698;2023-07-08T09:46:04;99174.72;;;30.51;44.14
9899;BME280;4988;49.238;6.698;2023-07-08T09:48:34;99179.97;;;30.74;43.37
9899;BME280;4988;49.238;6.698;2023-07-08T09:51:01;99184.06;;;30.57;43.30
9899;BME280;4988;49.238;6.698;2023-07-08T09:53:27;99180.28;;;30.58;43.21
9899;BME280;4988;49.238;6.698;2023-07-08T09:55:54;99175.31;;;30.46;43.68
9899;BME280;4988;49.238;6.698;2023-07-08T09:58:25;99177.69;;;30.50;44.04
9899;BME280;4988;49.238;6.698;2023-07-08T10:00:56;99176.06;;;30.62;43.52
9899;BME280;4988;49.238;6.698;2023-07-08T10:03:26;99174.00;;;30.71;43.29
9899;BME280;4988;49.238;6.698;2023-07-08T10:05:55;99176.00;;;30.84;42.24
9899;BME280;4988;49.238;6.698;2023-07-08T10:08:30;99177.22;;;30.74;42.93
9899;BME280;4988;49.238;6.698;2023-07-08T10:11:33;99173.84;;;31.07;42.49
9899;BME280;4988;49.238;6.698;2023-07-08T10:14:08;99182.47;;;31.39;41.94
9899;BME280;4988;49.238;6.698;2023-07-08T10:16:36;99173.53;;;31.37;41.96
9899;BME280;4988;49.238;6.698;2023-07-08T10:19:09;99177.63;;;31.06;42.08
9899;BME280;4988;49.238;6.698;2023-07-08T10:35:01;99171.84;;;31.36;40.78
9899;BME280;4988;49.238;6.698;2023-07-08T10:37:43;99170.09;;;31.70;39.72
9899;BME280;4988;49.238;6.698;2023-07-08T10:40:22;99164.59;;;31.70;39.96
9899;BME280;4988;49.238;6.698;2023-07-08T10:43:00;99165.41;;;31.64;39.65
9899;BME280;4988;49.238;6.698;2023-07-08T10:50:56;99171.56;;;31.66;40.50
9899;BME280;4988;49.238;6.698;2023-07-08T10:53:35;99173.97;;;31.89;40.45
9899;BME280;4988;49.238;6.698;2023-07-08T10:56:16;99169.72;;;31.94;39.02
9899;BME280;4988;49.238;6.698;2023-07-08T10:59:06;99173.75;;;32.04;39.44
9899;BME280;4988;49.238;6.698;2023-07-08T11:04:47;99179.44;;;31.83;38.83
9899;BME280;4988;49.238;6.698;2023-07-08T11:07:32;99183.19;;;31.68;38.87
9899;BME280;4988;49.238;6.698;2023-07-08T11:10:09;99176.34;;;31.51;41.26
9899;BME280;4988;49.238;6.698;2023-07-08T11:15:23;99176.28;;;31.86;39.61
9899;BME280;4988;49.238;6.698;2023-07-08T11:18:16;99178.72;;;31.60;40.58
9899;BME280;4988;49.238;6.698;2023-07-08T11:21:06;99179.25;;;31.29;40.07
9899;BME280;4988;49.238;6.698;2023-07-08T11:23:45;99177.16;;;30.96;40.29
9899;BME280;4988;49.238;6.698;2023-07-08T11:26:21;99177.94;;;31.25;39.86
9899;BME280;4988;49.238;6.698;2023-07-08T11:28:50;99193.22;;;31.34;41.33
9899;BME280;4988;49.238;6.698;2023-07-08T11:31:16;99184.38;;;31.04;41.80
9899;BME280;4988;49.238;6.698;2023-07-08T11:33:43;99185.97;;;30.85;42.91
9899;BME280;4988;49.238;6.698;2023-07-08T11:36:10;99185.34;;;31.24;42.53
9899;BME280;4988;49.238;6.698;2023-07-08T11:38:36;99190.72;;;31.39;42.47
9899;BME280;4988;49.238;6.698;2023-07-08T11:41:11;99185.53;;;31.65;41.16
9899;BME280;4988;49.238;6.698;2023-07-08T11:43:45;99194.78;;;31.57;41.53
9899;BME280;4988;49.238;6.698;2023-07-08T11:46:15;99184.16;;;31.40;41.45
9899;BME280;4988;49.238;6.698;2023-07-08T11:48:47;99191.31;;;31.28;41.63
9899;BME280;4988;49.238;6.698;2023-07-08T11:51:19;99185.16;;;31.26;41.31
9899;BME280;4988;49.238;6.698;2023-07-08T11:54:13;99189.09;;;31.10;41.29
9899;BME280;4988;49.238;6.698;2023-07-08T11:56:57;99188.88;;;31.11;41.59
9899;BME280;4988;49.238;6.698;2023-07-08T11:59:24;99187.97;;;31.39;41.01
9899;BME280;4988;49.238;6.698;2023-07-08T12:07:17;99182.50;;;31.59;39.89
9899;BME280;4988;49.238;6.698;2023-07-08T12:09:59;99180.41;;;31.62;38.19
9899;BME280;4988;49.238;6.698;2023-07-08T12:12:36;99174.47;;;31.51;38.97
9899;BME280;4988;49.238;6.698;2023-07-08T12:17:37;99185.00;;;31.41;40.11
9899;BME280;4988;49.238;6.698;2023-07-08T12:20:06;99177.78;;;31.33;40.33
9899;BME280;4988;49.238;6.698;2023-07-08T12:22:39;99181.63;;;31.52;40.41
9899;BME280;4988;49.238;6.698;2023-07-08T12:25:12;99182.16;;;31.69;39.60
9899;BME280;4988;49.238;6.698;2023-07-08T12:27:38;99187.66;;;31.69;39.71
9899;BME280;4988;49.238;6.698;2023-07-08T12:30:03;99194.19;;;31.62;39.29
9899;BME280;4988;49.238;6.698;2023-07-08T12:32:29;99180.34;;;31.41;40.07
9899;BME280;4988;49.238;6.698;2023-07-08T12:34:54;99186.75;;;31.55;39.52
9899;BME280;4988;49.238;6.698;2023-07-08T12:37:21;99182.38;;;31.68;39.74
9899;BME280;4988;49.238;6.698;2023-07-08T12:39:55;99178.34;;;31.70;39.58
9899;BME280;4988;49.238;6.698;2023-07-08T12:42:21;99175.41;;;31.79;39.34
9899;BME280;4988;49.238;6.698;2023-07-08T12:44:46;99170.75;;;31.72;39.38
9899;BME280;4988;49.238;6.698;2023-07-08T12:47:13;99176.97;;;31.46;40.22
9899;BME280;4988;49.238;6.698;2023-07-08T12:49:39;99184.84;;;31.56;40.42
9899;BME280;4988;49.238;6.698;2023-07-08T12:52:04;99181.25;;;31.62;39.59
9899;BME280;4988;49.238;6.698;2023-07-08T12:54:30;99187.66;;;31.69;40.01
9899;BME280;4988;49.238;6.698;2023-07-08T12:56:56;99176.28;;;31.92;39.40
9899;BME280;4988;49.238;6.698;2023-07-08T12:59:23;99169.72;;;32.14;38.83
9899;BME280;4988;49.238;6.698;2023-07-08T13:01:50;99176.03;;;31.81;39.39
9899;BME280;4988;49.238;6.698;2023-07-08T13:04:17;99180.78;;;31.45;40.69
9899;BME280;4988;49.238;6.698;2023-07-08T13:06:44;99174.50;;;31.09;40.56
9899;BME280;4988;49.238;6.698;2023-07-08T13:11:45;99174.03;;;31.54;38.95
9899;BME280;4988;49.238;6.698;2023-07-08T13:14:11;99180.41;;;31.55;39.41
9899;BME280;4988;49.238;6.698;2023-07-08T13:16:37;99171.28;;;31.48;39.37
9899;BME280;4988;49.238;6.698;2023-07-08T13:19:04;99174.06;;;31.61;39.17
9899;BME280;4988;49.238;6.698;2023-07-08T13:21:31;99169.00;;;31.65;39.55
9899;BME280;4988;49.238;6.698;2023-07-08T13:23:57;99171.56;;;31.66;39.08
9899;BME280;4988;49.238;6.698;2023-07-08T13:26:27;99169.03;;;31.78;38.64
9899;BME280;4988;49.238;6.698;2023-07-08T13:29:13;99161.00;;;31.70;38.03
9899;BME280;4988;49.238;6.698;2023-07-08T13:31:41;99160.28;;;31.54;38.89
9899;BME280;4988;49.238;6.698;2023-07-08T13:34:16;99160.03;;;31.42;38.47
9899;BME280;4988;49.238;6.698;2023-07-08T13:36:44;99156.13;;;31.72;39.26
9899;BME280;4988;49.238;6.698;2023-07-08T13:39:24;99147.06;;;31.98;38.00
9899;BME280;4988;49.238;6.698;2023-07-08T13:41:51;99149.59;;;32.06;38.01
9899;BME280;4988;49.238;6.698;2023-07-08T13:44:16;99139.22;;;32.08;37.42
9899;BME280;4988;49.238;6.698;2023-07-08T13:46:52;99130.53;;;32.05;37.73
9899;BME280;4988;49.238;6.698;2023-07-08T13:49:30;99139.88;;;32.11;37.77
9899;BME280;4988;49.238;6.698;2023-07-08T13:54:48;99143.06;;;32.34;37.82
9899;BME280;4988;49.238;6.698;2023-07-08T13:57:18;99134.16;;;32.46;36.89
9899;BME280;4988;49.238;6.698;2023-07-08T13:59:44;99135.19;;;32.45;36.84
9899;BME280;4988;49.238;6.698;2023-07-08T14:02:22;99141.13;;;32.48;35.91
9899;BME280;4988;49.238;6.698;2023-07-08T14:04:49;99144.94;;;32.61;36.40
9899;BME280;4988;49.238;6.698;2023-07-08T14:07:24;99146.22;;;32.65;36.33
9899;BME280;4988;49.238;6.698;2023-07-08T14:09:50;99138.38;;;32.82;35.36
9899;BME280;4988;49.238;6.698;2023-07-08T14:12:15;99143.66;;;32.77;34.82
9899;BME280;4988;49.238;6.698;2023-07-08T14:14:41;99143.22;;;32.73;34.08